Time;durP1;ratioP1;P1;durP2;ratioP2;P2;SDS_P1;SDS_P2;PMS_P1;PMS_P2;Temp;Humidity;BMP_temperature;BMP_pressure;BME280_temperature;BME280_humidity;BME280_pressure;Samples;Min_cycle;Max_cycle;Signal;HPM_P1;HPM_P2
2023/12/22 00:02:28;;;;;;;7.75;3.60;;;;;;;1.52;73.88;97782.66;4864637;29;20049;-73
2023/12/22 00:04:57;;;;;;;7.80;4.28;;;;;;;1.31;73.71;97740.91;4862007;29;20120;-72
2023/12/22 00:07:28;;;;;;;6.15;4.00;;;;;;;1.57;74.22;97786.03;4863269;29;20044;-72
2023/12/22 00:09:54;;;;;;;7.25;3.95;;;;;;;1.53;73.78;97778.38;4881960;29;20135;-72
2023/12/22 00:12:22;;;;;;;7.80;4.05;;;;;;;1.51;73.59;97780.97;4864148;29;20049;-70
2023/12/22 00:14:48;;;;;;;7.60;4.32;;;;;;;1.26;73.55;97749.44;4875880;29;20053;-72
2023/12/22 00:17:14;;;;;;;6.15;3.75;;;;;;;1.39;73.61;97773.31;4862090;29;20105;-73
2023/12/22 00:20:02;;;;;;;9.18;4.50;;;;;;;1.34;74.28;97757.97;4864816;29;20037;-71
2023/12/22 00:22:30;;;;;;;6.65;4.15;;;;;;;1.32;73.75;97765.66;4845762;29;20045;-72
2023/12/22 00:24:56;;;;;;;8.25;4.30;;;;;;;1.15;74.06;97737.53;4862970;29;20036;-72
2023/12/22 00:27:28;;;;;;;9.73;4.35;;;;;;;1.29;74.11;97762.25;4865308;29;20105;-73
2023/12/22 00:29:54;;;;;;;7.57;3.90;;;;;;;1.15;73.40;97755.47;4866669;29;20137;-72
2023/12/22 00:32:23;;;;;;;8.30;4.45;;;;;;;0.83;74.44;97702.63;4864598;29;20041;-73
2023/12/22 00:34:49;;;;;;;9.27;4.50;;;;;;;1.11;73.66;97750.34;4846600;29;20037;-72
2023/12/22 00:37:15;;;;;;;6.95;4.32;;;;;;;1.16;74.06;97754.63;4866718;29;20112;-72
2023/12/22 00:39:41;;;;;;;7.30;4.00;;;;;;;0.75;73.76;97691.59;4861102;29;20045;-73
2023/12/22 00:42:11;;;;;;;7.95;4.30;;;;;;;1.09;73.41;97763.16;4861035;29;20056;-73
2023/12/22 00:44:40;;;;;;;10.32;4.53;;;;;;;1.11;73.91;97765.72;4878513;29;20644;-73
2023/12/22 00:47:09;;;;;;;7.55;4.18;;;;;;;0.82;73.94;97716.28;4851568;29;20051;-73
2023/12/22 00:49:36;;;;;;;7.85;4.40;;;;;;;1.11;73.75;97771.72;4881002;29;20049;-72
2023/12/22 00:52:03;;;;;;;8.40;4.00;;;;;;;0.60;73.87;97702.72;4876751;29;20044;-73
2023/12/22 00:54:31;;;;;;;8.80;4.85;;;;;;;0.89;74.24;97741.03;4864534;29;20064;-74
2023/12/22 00:56:58;;;;;;;8.07;4.50;;;;;;;0.98;73.85;97747.84;4861995;29;20049;-72
2023/12/22 00:59:25;;;;;;;8.20;4.75;;;;;;;1.01;74.18;97762.34;4878730;29;20049;-71
2023/12/22 01:01:54;;;;;;;7.45;4.25;;;;;;;0.92;74.03;97765.78;4850849;29;20140;-72
2023/12/22 01:04:21;;;;;;;7.60;4.30;;;;;;;0.72;74.29;97722.31;4878849;29;20554;-74
2023/12/22 01:06:48;;;;;;;9.18;5.03;;;;;;;0.67;74.51;97714.63;4879728;29;20044;-72
2023/12/22 01:09:16;;;;;;;7.75;4.40;;;;;;;0.92;74.09;97754.69;4864172;29;20563;-73
2023/12/22 01:11:55;;;;;;;9.02;5.18;;;;;;;0.81;74.22;97754.72;4839472;29;20048;-73
2023/12/22 01:14:33;;;;;;;7.65;4.00;;;;;;;0.77;74.06;97735.97;4861287;29;20041;-72
2023/12/22 01:17:00;;;;;;;8.45;4.57;;;;;;;0.86;74.12;97765.81;4876651;29;20041;-72
2023/12/22 01:19:26;;;;;;;8.00;4.63;;;;;;;0.87;74.79;97762.41;4865401;29;20113;-72
2023/12/22 01:21:52;;;;;;;8.73;4.82;;;;;;;0.83;74.94;97742.78;4851105;29;20044;-74
2023/12/22 01:24:18;;;;;;;9.77;5.10;;;;;;;0.89;74.90;97753.84;4864832;29;20138;-74
2023/12/22 01:26:49;;;;;;;10.52;5.10;;;;;;;0.36;74.46;97673.75;4861414;29;20076;-73
2023/12/22 01:29:19;;;;;;;9.15;4.90;;;;;;;0.69;74.84;97725.72;4860297;29;20488;-73
2023/12/22 01:31:48;;;;;;;8.95;4.38;;;;;;;0.96;74.96;97764.91;4876982;29;20044;-73
2023/12/22 01:34:17;;;;;;;9.07;4.80;;;;;;;0.88;75.15;97734.22;4860995;29;20397;-73
2023/12/22 01:36:43;;;;;;;8.18;4.85;;;;;;;0.81;74.61;97729.94;4879668;29;20036;-74
2023/12/22 01:39:12;;;;;;;8.05;4.80;;;;;;;0.39;74.97;97657.53;4865918;29;20045;-75
2023/12/22 01:41:38;;;;;;;8.20;3.90;;;;;;;0.14;74.53;97639.66;4863008;29;20044;-73
2023/12/22 01:44:07;;;;;;;10.13;5.07;;;;;;;0.89;74.61;97741.03;4862544;29;20037;-72
2023/12/22 01:46:41;;;;;;;10.35;4.88;;;;;;;0.36;75.13;97666.06;4866388;29;20047;-72
2023/12/22 01:49:11;;;;;;;9.00;4.20;;;;;;;0.37;75.24;97665.22;4850815;29;20093;-74
2023/12/22 01:51:41;;;;;;;7.88;4.50;;;;;;;0.73;74.67;97724.03;4876596;29;20045;-74
2023/12/22 01:54:13;;;;;;;8.30;4.45;;;;;;;0.65;74.50;97723.16;4863295;29;20080;-74
2023/12/22 01:56:40;;;;;;;7.15;4.50;;;;;;;0.33;74.65;97665.25;4863069;29;20076;-72
2023/12/22 01:59:07;;;;;;;7.80;4.68;;;;;;;0.82;74.70;97746.19;4877939;29;20049;-73
2023/12/22 02:01:33;;;;;;;8.50;4.43;;;;;;;0.55;75.00;97707.81;4877637;29;20045;-71
2023/12/22 02:04:00;;;;;;;8.02;5.05;;;;;;;0.67;75.15;97734.25;4878612;29;20079;-72
2023/12/22 02:06:35;;;;;;;9.15;5.10;;;;;;;0.76;74.79;97744.50;4878283;29;20084;-72
2023/12/22 02:09:05;;;;;;;10.00;4.88;;;;;;;0.53;74.87;97724.06;4877094;29;20037;-72
2023/12/22 02:11:31;;;;;;;8.38;4.65;;;;;;;0.68;75.38;97736.81;4835642;29;20109;-72
2023/12/22 02:13:57;;;;;;;10.32;4.95;;;;;;;0.61;74.78;97712.09;4847550;29;20104;-71
2023/12/22 02:16:38;;;;;;;8.80;4.72;;;;;;;0.87;75.34;97736.78;4879608;29;20097;-72
2023/12/22 02:19:30;;;;;;;7.63;4.45;;;;;;;0.90;75.37;97739.31;4879205;29;20103;-72
2023/12/22 02:22:06;;;;;;;9.10;4.78;;;;;;;0.87;75.17;97737.63;4856951;29;20129;-72
2023/12/22 02:24:35;;;;;;;10.27;5.10;;;;;;;0.90;74.89;97742.75;4873976;29;20079;-71
2023/12/22 02:27:40;;;;;;;10.27;4.97;;;;;;;0.88;74.81;97733.38;4876637;29;20051;-70
2023/12/22 02:30:11;;;;;;;7.45;4.53;;;;;;;0.86;75.08;97728.22;4861068;29;20037;-72
2023/12/22 02:32:42;;;;;;;8.77;5.05;;;;;;;0.85;74.85;97721.41;4877425;29;20045;-74
2023/12/22 02:35:17;;;;;;;11.80;5.35;;;;;;;0.64;75.28;97698.44;4876099;29;20408;-71
2023/12/22 02:37:46;;;;;;;9.38;4.80;;;;;;;0.80;75.10;97720.56;4848414;29;20077;-72
2023/12/22 02:40:18;;;;;;;8.70;4.85;;;;;;;0.82;74.72;97723.13;4864637;29;20045;-72
2023/12/22 02:42:44;;;;;;;9.15;5.05;;;;;;;0.60;74.98;97695.88;4876283;29;20144;-72
2023/12/22 02:45:18;;;;;;;9.27;5.13;;;;;;;0.73;74.98;97713.78;4876818;29;20071;-71
2023/12/22 02:47:48;;;;;;;10.13;5.07;;;;;;;0.82;75.20;97716.28;4859104;29;20038;-71
2023/12/22 02:50:17;;;;;;;11.43;5.20;;;;;;;0.72;75.31;97705.22;4875164;29;20117;-71
2023/12/22 02:52:44;;;;;;;9.70;4.80;;;;;;;0.86;74.95;97714.59;4860601;29;20033;-71
2023/12/22 02:55:16;;;;;;;9.50;5.32;;;;;;;0.66;75.05;97676.25;4874232;29;20508;-71
2023/12/22 02:57:45;;;;;;;8.77;4.95;;;;;;;0.34;74.61;97624.28;4876818;29;20412;-72
2023/12/22 03:00:12;;;;;;;10.85;5.22;;;;;;;0.85;75.34;97711.16;4877987;29;20524;-74
2023/12/22 03:02:40;;;;;;;10.23;5.40;;;;;;;0.66;74.66;97691.59;4864016;29;20101;-72
2023/12/22 03:05:06;;;;;;;10.82;5.78;;;;;;;0.55;75.16;97666.88;4859592;29;20049;-71
2023/12/22 03:07:38;;;;;;;11.68;5.03;;;;;;;0.77;74.83;97723.16;4878918;29;20052;-73
2023/12/22 03:10:04;;;;;;;9.02;5.15;;;;;;;0.25;74.99;97614.94;4876624;29;20055;-71
2023/12/22 03:12:36;;;;;;;11.35;5.90;;;;;;;0.88;75.47;97713.72;4876701;29;20037;-73
2023/12/22 03:15:09;;;;;;;9.52;5.72;;;;;;;0.74;74.96;97679.63;4859426;29;20045;-69
2023/12/22 03:17:35;;;;;;;14.25;6.22;;;;;;;0.89;74.77;97707.75;4875289;29;20132;-73
2023/12/22 03:20:01;;;;;;;10.57;5.47;;;;;;;0.80;74.63;97696.69;4879327;29;20049;-73
2023/12/22 03:22:32;;;;;;;10.88;5.30;;;;;;;0.87;74.63;97709.47;4861041;29;20045;-72
2023/12/22 03:24:58;;;;;;;11.90;5.88;;;;;;;0.71;74.59;97685.59;4862559;29;20103;-72
2023/12/22 03:27:24;;;;;;;11.57;6.18;;;;;;;0.66;74.93;97681.34;4859924;29;20095;-74
2023/12/22 03:29:51;;;;;;;13.25;5.88;;;;;;;0.53;74.30;97676.28;4855561;29;20190;-70
2023/12/22 03:32:17;;;;;;;10.60;5.35;;;;;;;0.55;74.71;97696.75;4879303;29;20048;-72
2023/12/22 03:34:53;;;;;;;10.32;5.97;;;;;;;0.57;74.60;97697.59;4872554;29;20048;-71
2023/12/22 03:37:22;;;;;;;10.27;5.72;;;;;;;0.41;74.86;97677.16;4860924;29;20110;-67
2023/12/22 03:39:48;;;;;;;10.60;6.00;;;;;;;0.69;75.32;97697.56;4863199;29;20052;-67
2023/12/22 03:42:17;;;;;;;12.27;6.40;;;;;;;-0.13;75.01;97568.97;4848385;29;20056;-67
2023/12/22 03:44:45;;;;;;;12.75;6.05;;;;;;;0.48;75.48;97664.34;4873859;29;20049;-67
2023/12/22 03:47:15;;;;;;;12.73;6.10;;;;;;;0.54;74.45;97670.31;4864928;29;20041;-72
2023/12/22 03:49:43;;;;;;;10.77;5.53;;;;;;;0.51;74.90;97672.00;4879844;29;20041;-70
2023/12/22 03:52:12;;;;;;;12.38;5.85;;;;;;;0.46;74.84;97672.03;4878016;29;20101;-69
2023/12/22 03:54:43;;;;;;;8.98;5.25;;;;;;;0.52;74.90;97699.31;4862715;29;20132;-72
2023/12/22 03:57:09;;;;;;;11.18;5.93;;;;;;;0.47;75.00;97681.41;4862099;29;20056;-69
2023/12/22 03:59:35;;;;;;;11.25;5.55;;;;;;;0.11;74.48;97617.50;4877142;29;20045;-70
2023/12/22 04:02:04;;;;;;;10.02;5.53;;;;;;;0.53;74.46;97690.78;4862282;29;20040;-71
2023/12/22 04:04:31;;;;;;;12.20;6.35;;;;;;;0.61;75.17;97691.63;4861438;29;20075;-69
2023/12/22 04:06:57;;;;;;;11.23;6.03;;;;;;;0.48;74.44;97660.09;4879600;29;20045;-69
2023/12/22 04:09:23;;;;;;;11.73;6.40;;;;;;;0.66;74.71;97669.44;4863093;29;20048;-70
2023/12/22 04:11:53;;;;;;;11.45;6.28;;;;;;;0.73;74.67;97685.63;4864665;29;20141;-70
2023/12/22 04:14:19;;;;;;;12.65;6.60;;;;;;;0.72;74.78;97676.22;4875594;29;20071;-71
2023/12/22 04:16:48;;;;;;;10.20;6.22;;;;;;;0.58;74.51;97656.63;4867209;29;20520;-69
2023/12/22 04:19:14;;;;;;;9.18;5.32;;;;;;;0.47;74.60;97645.56;4863508;29;20045;-70
2023/12/22 04:21:40;;;;;;;9.85;6.18;;;;;;;0.53;74.87;97660.94;4861065;29;20053;-71
2023/12/22 04:24:08;;;;;;;15.57;6.78;;;;;;;0.67;74.88;97667.69;4849386;29;20061;-70
2023/12/22 04:26:37;;;;;;;12.32;7.40;;;;;;;0.45;74.67;97634.50;4878460;29;20050;-69
2023/12/22 04:29:07;;;;;;;11.77;6.03;;;;;;;0.48;74.41;97631.94;4863215;29;20036;-75
2023/12/22 04:31:36;;;;;;;10.55;5.85;;;;;;;0.19;74.09;97591.91;4851309;29;20049;-71
2023/12/22 04:34:04;;;;;;;12.75;6.40;;;;;;;0.44;74.47;97633.63;4860769;29;20041;-73
2023/12/22 04:36:33;;;;;;;12.15;5.75;;;;;;;0.51;74.19;97646.41;4862417;29;20048;-70
2023/12/22 04:38:59;;;;;;;11.10;5.60;;;;;;;0.61;74.13;97660.91;4881584;29;20105;-71
2023/12/22 04:41:26;;;;;;;13.20;6.80;;;;;;;0.42;74.31;97622.56;4865061;29;20045;-68
2023/12/22 04:43:52;;;;;;;15.60;7.25;;;;;;;0.45;74.67;97624.25;4847179;29;20508;-70
2023/12/22 04:46:18;;;;;;;14.45;7.40;;;;;;;0.57;74.08;97633.59;4851915;29;20128;-69
2023/12/22 04:48:44;;;;;;;16.33;7.80;;;;;;;0.65;74.40;97628.44;4863201;29;20068;-71
2023/12/22 04:51:15;;;;;;;14.50;8.15;;;;;;;0.09;74.51;97542.50;4851954;29;20052;-70
2023/12/22 04:53:41;;;;;;;14.63;7.55;;;;;;;0.47;74.07;97604.63;4874056;29;20056;-69
2023/12/22 04:56:07;;;;;;;14.38;7.85;;;;;;;0.77;74.69;97646.34;4859973;29;20096;-71
2023/12/22 04:58:33;;;;;;;15.45;7.88;;;;;;;0.87;74.48;97640.31;4863068;29;20067;-70
2023/12/22 05:01:02;;;;;;;13.80;7.15;;;;;;;0.57;74.23;97608.00;4866258;29;20067;-72
2023/12/22 05:03:28;;;;;;;14.85;7.82;;;;;;;0.68;74.66;97608.81;4877488;29;20069;-71
2023/12/22 05:05:54;;;;;;;15.45;8.25;;;;;;;0.31;74.09;97572.28;4865581;29;20144;-69
2023/12/22 05:08:20;;;;;;;15.80;7.78;;;;;;;0.79;74.23;97642.03;4880191;29;20048;-70
2023/12/22 05:10:46;;;;;;;17.52;8.77;;;;;;;0.78;73.99;97645.47;4879237;29;20300;-71
2023/12/22 05:13:12;;;;;;;18.02;8.77;;;;;;;0.59;74.58;97622.50;4880252;29;20080;-71
2023/12/22 05:15:41;;;;;;;17.23;8.30;;;;;;;0.80;74.69;97646.31;4863731;29;20079;-69
2023/12/22 05:18:08;;;;;;;13.45;7.28;;;;;;;0.67;74.39;97626.75;4877146;29;20135;-71
2023/12/22 05:20:34;;;;;;;14.48;8.32;;;;;;;0.81;74.30;97634.38;4833293;29;20049;-72
2023/12/22 05:23:03;;;;;;;16.58;8.73;;;;;;;0.84;74.13;97658.25;4877135;29;20042;-71
2023/12/22 05:25:29;;;;;;;15.88;7.88;;;;;;;0.72;73.50;97632.69;4862802;29;20049;-71
2023/12/22 05:27:58;;;;;;;15.32;8.65;;;;;;;0.50;73.95;97604.63;4862682;29;20105;-70
2023/12/22 05:30:27;;;;;;;14.55;8.18;;;;;;;0.46;74.16;97608.03;4875376;29;20037;-71
2023/12/22 05:32:54;;;;;;;13.70;7.43;;;;;;;0.63;74.10;97615.66;4876634;29;20049;-72
2023/12/22 05:35:29;;;;;;;15.23;8.00;;;;;;;0.77;74.12;97643.78;4857529;29;20049;-70
2023/12/22 05:37:58;;;;;;;11.95;7.03;;;;;;;0.71;73.40;97648.91;4862797;29;20080;-72
2023/12/22 05:40:25;;;;;;;10.90;5.82;;;;;;;0.39;73.75;97620.00;4879823;29;20048;-69
2023/12/22 05:42:54;;;;;;;12.80;6.82;;;;;;;0.57;74.19;97634.44;4864423;29;20041;-69
2023/12/22 05:45:20;;;;;;;13.30;7.40;;;;;;;0.72;74.75;97655.75;4847140;29;20080;-72
2023/12/22 05:47:48;;;;;;;13.57;7.40;;;;;;;0.37;73.95;97602.94;4863925;29;20993;-71
2023/12/22 05:50:14;;;;;;;9.65;5.90;;;;;;;0.77;74.07;97668.53;4860185;29;20067;-72
2023/12/22 05:52:43;;;;;;;11.07;6.32;;;;;;;0.57;74.23;97634.44;4856184;29;20044;-72
2023/12/22 05:55:09;;;;;;;11.02;6.28;;;;;;;0.64;73.61;97647.22;4858148;29;20044;-71
2023/12/22 05:57:38;;;;;;;11.50;5.70;;;;;;;0.43;74.33;97613.16;4863351;29;20056;-73
2023/12/22 06:00:07;;;;;;;12.73;6.07;;;;;;;0.76;74.44;97654.88;4859895;29;20408;-72
2023/12/22 06:02:34;;;;;;;12.38;6.75;;;;;;;0.87;74.59;97675.31;4862377;29;20119;-65
2023/12/22 06:05:05;;;;;;;10.32;5.70;;;;;;;0.79;74.02;97642.03;4875497;29;20041;-68
2023/12/22 06:07:34;;;;;;;;;;;;;;;0.94;74.21;97671.03;4860442;29;20113;-68
2023/12/22 06:10:00;;;;;;;9.85;5.97;;;;;;;0.74;74.43;97621.59;4878281;29;19919;-69
2023/12/22 06:12:33;;;;;;;10.85;5.50;;;;;;;0.86;74.31;97635.22;4859990;29;20072;-69
2023/12/22 06:15:00;;;;;;;8.43;5.10;;;;;;;1.09;74.03;97652.19;4845368;29;20056;-68
2023/12/22 06:17:26;;;;;;;12.30;6.97;;;;;;;0.92;73.85;97645.41;4858754;29;20044;-68
2023/12/22 06:19:52;;;;;;;14.35;8.15;;;;;;;0.90;73.72;97622.38;4861922;29;20211;-71
2023/12/22 06:22:22;;;;;;;10.05;6.25;;;;;;;1.13;74.33;97644.47;4859956;29;20177;-71
2023/12/22 06:24:51;;;;;;;11.27;6.55;;;;;;;1.05;73.51;97618.03;4872762;29;20060;-70
2023/12/22 06:27:20;;;;;;;11.18;5.78;;;;;;;1.16;73.82;97666.63;4873702;29;20496;-68
2023/12/22 06:29:49;;;;;;;11.38;5.72;;;;;;;1.11;73.48;97674.34;4857007;29;20048;-67
2023/12/22 06:32:17;;;;;;;10.75;5.47;;;;;;;1.11;73.06;97671.78;4872336;29;20053;-69
2023/12/22 06:34:43;;;;;;;10.30;5.68;;;;;;;1.11;73.94;97653.84;4872990;29;20126;-69
2023/12/22 06:37:11;;;;;;;9.88;5.88;;;;;;;1.17;73.69;97653.84;4859039;29;20052;-71
2023/12/22 06:39:55;;;;;;;9.88;6.00;;;;;;;0.96;73.39;97615.53;4873488;29;20041;-69
2023/12/22 06:42:27;;;;;;;9.50;5.57;;;;;;;1.12;73.53;97629.06;4860924;29;20109;-70
2023/12/22 06:45:00;;;;;;;9.95;5.72;;;;;;;1.24;73.79;97649.53;4864074;29;20132;-69
2023/12/22 06:47:34;;;;;;;10.15;5.75;;;;;;;1.28;73.43;97645.22;4880050;29;20124;-72
2023/12/22 06:50:04;;;;;;;15.60;6.40;;;;;;;1.33;73.39;97646.06;4868665;29;20559;-72
2023/12/22 06:52:51;;;;;;;11.13;6.53;;;;;;;1.32;74.08;97616.16;4851313;29;20033;-69
2023/12/22 06:55:17;;;;;;;9.38;5.95;;;;;;;1.25;73.59;97584.59;4877461;29;20075;-70
2023/12/22 06:58:02;;;;;;;11.20;6.18;;;;;;;1.39;72.66;97605.00;4879883;29;20041;-72
2023/12/22 07:00:47;;;;;;;9.38;5.13;;;;;;;1.39;72.81;97622.94;4849137;29;20045;-72
2023/12/22 07:03:17;;;;;;;11.35;5.75;;;;;;;1.49;72.91;97642.53;4878211;29;20092;-71
2023/12/22 07:05:44;;;;;;;11.68;6.75;;;;;;;1.41;72.77;97620.38;4874612;29;20037;-73
2023/12/22 07:08:15;;;;;;;9.07;5.57;;;;;;;1.14;72.78;97577.00;4879411;29;20129;-72
2023/12/22 07:10:47;;;;;;;10.10;5.97;;;;;;;1.63;72.95;97626.19;4868395;29;20037;-76
2023/12/22 07:13:14;;;;;;;9.35;5.60;;;;;;;1.41;72.69;97579.34;4862933;29;20064;-74
2023/12/22 07:15:43;;;;;;;10.52;5.82;;;;;;;1.17;72.39;97528.28;4866645;29;20049;-72
2023/12/22 07:18:12;;;;;;;10.07;5.78;;;;;;;1.65;71.90;97607.38;4867899;29;20044;-74
2023/12/22 07:20:39;;;;;;;10.77;6.00;;;;;;;2.17;72.71;97661.66;4881634;29;20037;-75
2023/12/22 07:23:13;;;;;;;8.88;5.63;;;;;;;2.19;72.37;97651.38;4867840;29;20045;-73
2023/12/22 07:25:48;;;;;;;9.82;5.78;;;;;;;2.31;72.18;97643.56;4860881;29;20045;-65
2023/12/22 07:28:15;;;;;;;10.65;6.32;;;;;;;2.58;72.56;97656.13;4876882;29;20055;-62
2023/12/22 07:31:27;;;;;;;9.57;5.57;;;;;;;2.78;72.21;97656.75;4877550;29;20096;-70
2023/12/22 07:33:54;;;;;;;10.43;5.57;;;;;;;2.57;70.68;97644.97;4860039;29;20093;-68
2023/12/22 07:36:43;;;;;;;10.43;5.53;;;;;;;2.20;70.95;97601.75;4863450;29;20048;-70
2023/12/22 07:39:22;;;;;;;8.48;5.38;;;;;;;2.52;71.01;97649.34;4859153;29;20416;-70
2023/12/22 07:41:57;;;;;;;8.13;4.78;;;;;;;2.21;70.60;97616.28;4853461;29;20186;-71
2023/12/22 07:44:36;;;;;;;8.05;4.85;;;;;;;1.53;70.38;97539.97;4881324;29;20053;-70
2023/12/22 07:47:07;;;;;;;9.00;5.03;;;;;;;1.96;70.17;97588.28;4869004;29;20037;-72
2023/12/22 07:49:49;;;;;;;9.73;5.90;;;;;;;2.21;70.48;97608.56;4880807;29;20488;-73
2023/12/22 07:52:52;;;;;;;9.30;5.45;;;;;;;2.80;70.41;97639.59;4866152;29;20073;-73
2023/12/22 07:55:19;;;;;;;8.82;5.53;;;;;;;3.11;69.91;97638.34;4882110;29;20096;-74
2023/12/22 07:57:48;;;;;;;9.05;6.03;;;;;;;2.50;69.32;97531.22;4862357;29;20046;-73
2023/12/22 08:00:18;;;;;;;11.75;7.15;;;;;;;3.21;68.88;97609.06;4861261;29;20058;-75
2023/12/22 08:02:49;;;;;;;12.20;7.57;;;;;;;3.66;69.55;97623.84;4887557;29;20076;-70
2023/12/22 08:05:33;;;;;;;12.05;6.32;;;;;;;3.91;68.49;97616.56;4872282;29;20571;-78
2023/12/22 08:08:04;;;;;;;11.50;7.45;;;;;;;3.97;68.95;97514.41;4870402;29;20049;-71
2023/12/22 08:10:35;;;;;;;11.70;7.30;;;;;;;4.52;68.34;97518.44;4855377;29;20056;-74
2023/12/22 08:13:07;;;;;;;14.63;8.10;;;;;;;5.38;68.33;97552.66;4870782;29;20528;-77
2023/12/22 08:15:33;;;;;;;13.38;7.72;;;;;;;5.55;68.25;97518.72;4872860;29;20052;-75
2023/12/22 08:18:27;;;;;;;13.98;7.95;;;;;;;6.71;67.69;97571.63;4870357;29;20068;-71
2023/12/22 08:21:08;;;;;;;;;;;;;;;;;;;;;
2023/12/22 08:23:43;;;;;;;13.27;7.70;;;;;;;7.68;65.61;97539.31;4885427;29;20044;-68
2023/12/22 08:26:22;;;;;;;;;;;;;;;;;;;;;
2023/12/22 08:28:51;;;;;;;14.18;8.23;;;;;;;7.49;62.69;97603.78;4868727;29;20036;-67
2023/12/22 08:31:41;;;;;;;14.82;9.20;;;;;;;7.27;63.17;97594.09;4854687;29;20088;-71
2023/12/22 08:34:31;;;;;;;15.70;8.55;;;;;;;7.35;63.28;97552.47;4863204;29;20602;-69
2023/12/22 08:37:00;;;;;;;14.25;8.27;;;;;;;7.38;61.03;97531.66;4868386;29;20080;-72
2023/12/22 08:39:31;;;;;;;12.35;7.57;;;;;;;6.90;60.94;97502.97;4867126;29;20106;-71
2023/12/22 08:42:00;;;;;;;11.95;7.95;;;;;;;7.76;60.78;97513.16;4855412;29;20422;-72
2023/12/22 08:44:36;;;;;;;12.07;7.88;;;;;;;8.19;61.52;97554.88;4869227;29;20055;-71
2023/12/22 08:47:05;;;;;;;10.80;7.68;;;;;;;8.26;60.54;97553.78;4886081;29;20044;-71
2023/12/22 08:52:34;;;;;;;;;;;;;;;;;;;;;
2023/12/22 08:55:16;;;;;;;11.68;7.35;;;;;;;9.47;58.29;97567.44;4883377;29;20037;-69
2023/12/22 08:57:53;;;;;;;10.02;7.25;;;;;;;9.46;57.79;97487.88;4866390;29;20052;-70
2023/12/22 09:00:37;;;;;;;10.32;6.95;;;;;;;10.15;56.78;97541.25;4872051;29;20025;-70
2023/12/22 09:03:04;;;;;;;9.65;6.53;;;;;;;9.40;54.30;97550.41;4868192;29;20105;-71
2023/12/22 09:05:54;;;;;;;7.97;6.57;;;;;;;9.83;54.96;97555.63;4871635;29;20041;-69
2023/12/22 09:08:31;;;;;;;8.63;6.68;;;;;;;10.47;56.74;97530.41;4870882;29;20049;-70
2023/12/22 09:10:57;;;;;;;9.15;6.97;;;;;;;10.32;53.06;97511.94;4852935;29;20096;-69
2023/12/22 09:13:29;;;;;;;8.77;6.90;;;;;;;10.57;53.50;97549.03;4885573;29;20140;-70
2023/12/22 09:16:08;;;;;;;7.47;6.18;;;;;;;10.95;53.72;97538.63;4868497;29;20041;-67
2023/12/22 09:18:36;;;;;;;8.90;6.70;;;;;;;10.64;53.07;97481.06;4868807;29;20045;-72
2023/12/22 09:21:15;;;;;;;9.10;6.63;;;;;;;10.79;50.95;97541.94;4866949;29;20029;-69
2023/12/22 09:24:07;;;;;;;11.32;6.40;;;;;;;10.47;51.79;97513.06;4886879;29;20064;-75
2023/12/22 09:26:42;;;;;;;9.07;6.55;;;;;;;10.25;52.17;97487.13;4858734;29;20140;-69
2023/12/22 09:29:10;;;;;;;8.95;6.22;;;;;;;9.97;50.47;97441.56;4887269;29;20145;-72
2023/12/22 09:31:39;;;;;;;9.25;6.88;;;;;;;10.71;50.97;97541.44;4868665;29;20048;-78
2023/12/22 09:34:07;;;;;;;;;;;;;;;10.98;51.97;97541.09;4858530;29;20048;-74
2023/12/22 09:36:39;;;;;;;8.02;5.88;;;;;;;10.90;50.47;97561.44;4857847;29;19927;-79
2023/12/22 09:39:06;;;;;;;;;;;;;;;10.78;51.96;97529.84;4890703;29;20063;-73
2023/12/22 09:41:35;;;;;;;8.65;6.20;;;;;;;9.96;50.82;97478.84;4855931;29;19946;-74
2023/12/22 09:44:11;;;;;;;7.03;5.63;;;;;;;10.17;50.83;97529.06;4872909;29;20048;-74
2023/12/22 09:46:43;;;;;;;8.25;6.30;;;;;;;9.54;50.27;97465.03;4869718;29;20076;-70
2023/12/22 09:49:10;;;;;;;7.95;6.20;;;;;;;9.47;49.50;97525.91;4853576;29;20072;-72
2023/12/22 09:51:40;;;;;;;8.55;6.82;;;;;;;8.42;50.09;97539.38;4871577;29;20432;-70
2023/12/22 09:54:17;;;;;;;6.93;5.32;;;;;;;7.52;50.12;97544.13;4885052;29;20531;-70
2023/12/22 09:56:50;;;;;;;8.32;6.30;;;;;;;6.85;50.89;97514.31;4855005;29;20048;-70
2023/12/22 09:59:18;;;;;;;7.35;5.65;;;;;;;6.46;52.42;97500.81;4882914;29;20021;-70
2023/12/22 10:01:57;;;;;;;8.05;5.80;;;;;;;6.09;52.32;97493.25;4854011;29;20043;-70
2023/12/22 10:04:23;;;;;;;8.18;6.00;;;;;;;6.15;52.07;97485.34;4880705;29;20091;-70
2023/12/22 10:07:04;;;;;;;8.02;5.43;;;;;;;6.36;54.67;97464.94;4857335;29;20045;-69
2023/12/22 10:09:38;;;;;;;8.35;5.15;;;;;;;6.26;54.08;97469.53;4865113;29;20045;-69
2023/12/22 10:12:26;;;;;;;8.27;5.57;;;;;;;6.01;54.40;97489.16;4873379;29;20044;-69
2023/12/22 10:14:54;;;;;;;10.85;6.03;;;;;;;5.62;53.50;97484.13;4872180;29;20137;-70
2023/12/22 10:17:40;;;;;;;;;;;;;;;;;;;;;
2023/12/22 10:20:08;;;;;;;10.07;5.65;;;;;;;4.80;54.72;97494.66;4870329;29;20042;-73
2023/12/22 10:22:41;;;;;;;7.30;5.45;;;;;;;4.40;55.90;97480.06;4869961;29;20037;-72
2023/12/22 10:25:14;;;;;;;7.93;5.28;;;;;;;4.13;56.42;97454.00;4884723;29;20049;-71
2023/12/22 10:27:44;;;;;;;9.75;5.70;;;;;;;4.11;55.97;97493.53;4869500;29;20068;-71
2023/12/22 10:30:11;;;;;;;8.18;5.20;;;;;;;3.50;55.96;97439.81;4863828;29;20090;-72
2023/12/22 10:32:44;;;;;;;7.68;5.38;;;;;;;3.81;57.54;97506.09;4866869;29;20186;-71
2023/12/22 10:35:12;;;;;;;9.02;4.82;;;;;;;3.57;57.60;97492.81;4870453;29;20045;-73
2023/12/22 10:37:38;;;;;;;8.52;4.95;;;;;;;3.19;58.26;97441.19;4866566;29;20048;-71
2023/12/22 10:40:06;;;;;;;9.55;5.07;;;;;;;3.35;59.11;97470.03;4883140;29;20152;-73
2023/12/22 10:43:17;;;;;;;8.70;5.38;;;;;;;3.16;58.48;97460.06;4882705;29;20101;-72
2023/12/22 10:45:46;;;;;;;8.77;4.90;;;;;;;2.80;58.64;97418.69;4864206;29;20053;-71
2023/12/22 10:48:24;;;;;;;7.85;4.78;;;;;;;2.97;59.71;97481.78;4881079;29;20041;-70
2023/12/22 10:50:53;;;;;;;7.32;4.90;;;;;;;2.60;59.51;97467.75;4870164;29;20040;-72
2023/12/22 10:53:28;;;;;;;7.53;4.70;;;;;;;2.53;60.01;97448.19;4866887;29;20041;-72
2023/12/22 10:55:56;;;;;;;6.47;4.10;;;;;;;2.57;60.57;97488.34;4878443;29;20049;-70
2023/12/22 10:58:29;;;;;;;9.05;4.90;;;;;;;2.67;60.93;97494.19;4867896;29;20041;-69
2023/12/22 11:00:59;;;;;;;8.60;4.90;;;;;;;2.70;61.74;97504.44;4866360;29;20053;-70
2023/12/22 11:03:34;;;;;;;6.47;4.28;;;;;;;2.48;61.50;97493.63;4880911;29;20053;-70
2023/12/22 11:06:15;;;;;;;8.00;4.28;;;;;;;2.11;61.91;97418.78;4880851;29;20038;-74
2023/12/22 11:08:43;;;;;;;8.38;4.47;;;;;;;2.13;61.65;97443.56;4882387;29;20060;-70
2023/12/22 11:11:32;;;;;;;8.82;4.38;;;;;;;2.08;61.88;97448.78;4841862;29;20048;-74
2023/12/22 11:14:07;;;;;;;7.22;3.75;;;;;;;2.20;61.70;97510.22;4879425;29;20074;-72
2023/12/22 11:16:36;;;;;;;7.65;4.65;;;;;;;1.99;62.31;97505.34;4872405;29;20053;-72
2023/12/22 11:19:13;;;;;;;7.45;3.90;;;;;;;1.47;62.61;97421.22;4853177;29;20060;-72
2023/12/22 11:21:40;;;;;;;6.72;4.47;;;;;;;1.12;62.54;97414.75;4867886;29;20106;-73
2023/12/22 11:25:02;;;;;;;8.45;4.20;;;;;;;1.72;63.68;97502.19;4879199;29;20065;-72
2023/12/22 11:27:46;;;;;;;6.65;4.07;;;;;;;1.29;63.20;97432.53;4858671;29;20053;-71
2023/12/22 11:30:20;;;;;;;7.15;3.97;;;;;;;0.94;62.60;97420.88;4871173;29;20039;-71
2023/12/22 11:32:53;;;;;;;7.32;4.03;;;;;;;0.97;64.01;97440.50;4883963;29;20070;-72
2023/12/22 11:35:24;;;;;;;8.68;4.40;;;;;;;1.18;64.61;97468.50;4885677;29;20042;-72
2023/12/22 11:37:53;;;;;;;6.80;3.67;;;;;;;1.40;63.97;97486.25;4874154;29;20069;-71
2023/12/22 11:40:22;;;;;;;7.55;4.50;;;;;;;1.15;64.92;97440.34;4882825;29;20156;-69
2023/12/22 11:42:52;;;;;;;9.45;4.68;;;;;;;1.24;64.91;97435.97;4870646;29;20127;-69
2023/12/22 11:45:24;;;;;;;7.03;4.13;;;;;;;1.67;65.07;97520.16;4853076;29;20101;-67
2023/12/22 11:47:54;;;;;;;8.38;4.40;;;;;;;1.24;64.70;97449.66;4871363;29;20056;-69
2023/12/22 11:50:42;;;;;;;7.05;4.22;;;;;;;1.44;64.54;97497.31;4871157;29;20037;-70
2023/12/22 11:53:28;;;;;;;8.10;4.50;;;;;;;1.50;65.17;97502.41;4865861;29;20045;-70
2023/12/22 11:56:20;;;;;;;6.88;4.15;;;;;;;0.94;65.50;97430.28;4870611;29;20064;-72
2023/12/22 11:58:57;;;;;;;7.78;4.40;;;;;;;0.90;65.24;97437.97;4867306;29;20053;-69
2023/12/22 12:04:30;;;;;;;9.60;4.82;;;;;;;0.88;65.66;97426.91;4873233;29;20105;-69
2023/12/22 12:06:56;;;;;;;7.40;4.63;;;;;;;1.28;66.29;97504.28;4851600;29;20049;-71
2023/12/22 12:09:48;;;;;;;11.30;5.63;;;;;;;1.06;66.15;97478.84;4866371;29;20047;-69
2023/12/22 12:12:18;;;;;;;10.90;5.70;;;;;;;1.14;66.47;97487.31;4839217;29;20109;-70